KLM132 MMMY-KSAN
Flight info
| Callsign | KLM132 |
|---|---|
| Flight time | 2h 39m |
| Altitude | 38000 |
| Route | XOTAT1/12 MTY MIDRA UT11 PPE UJ3 TANRI TIJ |
| Aircraft | A339/H-SADE1E2E3GHIJ3J5M1P2RWXY/LB2D1 |
Departure
| Time | 2026-04-22 03:34 |
|---|---|
| Airport | Monterrey International Airport (MMMY) |
Arrival
| Time | 2026-04-22 06:14 |
|---|---|
| Airport | San Diego International Airport (KSAN) |
| Time | Latitude | Longitude | Altitude | Speed | Heading |
|---|---|---|---|---|---|
| 2026-04-22 02:52 | 25.77932 | -100.11431 | 1283 ft | 0 kts | 211° |
| 2026-04-22 03:24 | 25.77933 | -100.11431 | 1284 ft | 2 kts | 211° |
| 2026-04-22 03:24 | 25.77949 | -100.11424 | 1290 ft | 2 kts | 219° |
| 2026-04-22 03:24 | 25.77959 | -100.11407 | 1291 ft | 2 kts | 113° |
| 2026-04-22 03:24 | 25.77964 | -100.11424 | 1290 ft | 0 kts | 299° |
| 2026-04-22 03:25 | 25.77970 | -100.11434 | 1289 ft | 0 kts | 305° |
| 2026-04-22 03:27 | 25.77970 | -100.11435 | 1290 ft | 2 kts | 303° |
| 2026-04-22 03:28 | 25.77982 | -100.11450 | 1289 ft | 3 kts | 312° |
| 2026-04-22 03:28 | 25.77970 | -100.11440 | 1290 ft | 3 kts | 285° |
| 2026-04-22 03:28 | 25.77977 | -100.11404 | 1289 ft | 7 kts | 229° |
| 2026-04-22 03:28 | 25.77996 | -100.11378 | 1289 ft | 4 kts | 259° |
| 2026-04-22 03:29 | 25.78004 | -100.11386 | 1289 ft | 0 kts | 304° |
| 2026-04-22 03:29 | 25.78031 | -100.11427 | 1290 ft | 26 kts | 306° |
| 2026-04-22 03:29 | 25.78134 | -100.11607 | 1287 ft | 28 kts | 301° |
| 2026-04-22 03:30 | 25.78232 | -100.11777 | 1290 ft | 18 kts | 314° |
| 2026-04-22 03:30 | 25.78272 | -100.11793 | 1291 ft | 15 kts | 351° |
| 2026-04-22 03:30 | 25.78331 | -100.11766 | 1292 ft | 9 kts | 31° |
| 2026-04-22 03:30 | 25.78313 | -100.11778 | 1291 ft | 7 kts | 32° |
| 2026-04-22 03:31 | 25.78258 | -100.11816 | 1291 ft | 10 kts | 31° |
| 2026-04-22 03:31 | 25.78195 | -100.11858 | 1290 ft | 5 kts | 31° |
| 2026-04-22 03:31 | 25.78344 | -100.11758 | 1292 ft | 8 kts | 32° |
| 2026-04-22 03:31 | 25.78345 | -100.11757 | 1292 ft | 0 kts | 32° |
| 2026-04-22 03:32 | 25.78372 | -100.11732 | 1292 ft | 13 kts | 42° |
| 2026-04-22 03:32 | 25.78375 | -100.11638 | 1291 ft | 3 kts | 106° |
| 2026-04-22 03:32 | 25.78372 | -100.11634 | 1291 ft | 4 kts | 113° |
| 2026-04-22 03:32 | 25.78350 | -100.11592 | 1290 ft | 16 kts | 121° |
| 2026-04-22 03:33 | 25.78341 | -100.11574 | 1290 ft | 4 kts | 120° |
| 2026-04-22 03:33 | 25.78328 | -100.11549 | 1289 ft | 24 kts | 120° |
| 2026-04-22 03:33 | 25.78112 | -100.11161 | 1282 ft | 105 kts | 121° |
| 2026-04-22 03:33 | 25.77587 | -100.10207 | 1276 ft | 179 kts | 121° |
| 2026-04-22 03:34 | 25.76858 | -100.08891 | 1595 ft | 207 kts | 122° |
| 2026-04-22 03:34 | 25.76142 | -100.07628 | 2535 ft | 194 kts | 122° |
| 2026-04-22 03:34 | 25.75421 | -100.06334 | 3381 ft | 206 kts | 122° |
| 2026-04-22 03:34 | 25.74660 | -100.04931 | 4223 ft | 218 kts | 122° |
| 2026-04-22 03:35 | 25.73863 | -100.03454 | 5075 ft | 227 kts | 123° |
| 2026-04-22 03:35 | 25.73031 | -100.01929 | 5908 ft | 235 kts | 123° |
| 2026-04-22 03:35 | 25.72151 | -100.00331 | 6580 ft | 249 kts | 122° |
| 2026-04-22 03:35 | 25.71202 | -99.98673 | 7188 ft | 260 kts | 128° |
| 2026-04-22 03:36 | 25.69806 | -99.97371 | 7838 ft | 267 kts | 154° |
| 2026-04-22 03:36 | 25.67999 | -99.96843 | 8493 ft | 273 kts | 179° |
| 2026-04-22 03:36 | 25.66101 | -99.97201 | 8946 ft | 287 kts | 203° |
| 2026-04-22 03:36 | 25.64372 | -99.98449 | 9103 ft | 311 kts | 226° |
| 2026-04-22 03:37 | 25.63462 | -99.99738 | 9112 ft | 329 kts | 240° |
| 2026-04-22 03:37 | 25.62667 | -100.02217 | 9116 ft | 355 kts | 262° |
| 2026-04-22 03:37 | 25.62705 | -100.05025 | 9117 ft | 378 kts | 281° |
| 2026-04-22 03:37 | 25.64027 | -100.08718 | 9120 ft | 403 kts | 300° |
| 2026-04-22 03:38 | 25.65001 | -100.10509 | 9116 ft | 393 kts | 301° |
| 2026-04-22 03:38 | 25.66259 | -100.13059 | 9118 ft | 361 kts | 296° |
| 2026-04-22 03:38 | 25.67215 | -100.15503 | 9117 ft | 331 kts | 291° |
| 2026-04-22 03:38 | 25.68115 | -100.17706 | 9122 ft | 304 kts | 298° |
| 2026-04-22 03:39 | 25.69042 | -100.19702 | 9113 ft | 278 kts | 296° |
| 2026-04-22 03:39 | 25.69871 | -100.21609 | 8637 ft | 272 kts | 295° |
| 2026-04-22 03:39 | 25.70664 | -100.23507 | 9032 ft | 277 kts | 295° |
| 2026-04-22 03:39 | 25.71459 | -100.25453 | 9904 ft | 276 kts | 294° |
| 2026-04-22 03:40 | 25.72239 | -100.27404 | 10700 ft | 277 kts | 294° |
| 2026-04-22 03:40 | 25.73051 | -100.29391 | 11166 ft | 293 kts | 295° |
| 2026-04-22 03:40 | 25.73964 | -100.31505 | 11392 ft | 315 kts | 295° |
| 2026-04-22 03:40 | 25.74942 | -100.33753 | 11768 ft | 323 kts | 295° |
| 2026-04-22 03:41 | 25.75914 | -100.36036 | 12023 ft | 332 kts | 294° |
| 2026-04-22 03:41 | 25.76900 | -100.38375 | 12621 ft | 335 kts | 294° |
| 2026-04-22 03:41 | 25.77885 | -100.40697 | 13555 ft | 332 kts | 294° |
| 2026-04-22 03:41 | 25.78883 | -100.43020 | 14301 ft | 335 kts | 295° |
| 2026-04-22 03:42 | 25.80101 | -100.45253 | 14948 ft | 341 kts | 303° |
| 2026-04-22 03:42 | 25.81575 | -100.47346 | 15628 ft | 346 kts | 306° |
| 2026-04-22 03:42 | 25.83076 | -100.49421 | 16279 ft | 350 kts | 306° |
| 2026-04-22 03:42 | 25.84601 | -100.51551 | 16973 ft | 354 kts | 305° |
| 2026-04-22 03:43 | 25.86137 | -100.53710 | 17651 ft | 357 kts | 305° |
| 2026-04-22 03:43 | 25.87682 | -100.55890 | 18301 ft | 361 kts | 305° |
| 2026-04-22 03:43 | 25.89245 | -100.58093 | 18896 ft | 364 kts | 305° |
| 2026-04-22 03:43 | 25.90814 | -100.60305 | 19579 ft | 366 kts | 305° |
| 2026-04-22 03:44 | 25.92408 | -100.62553 | 20112 ft | 372 kts | 305° |
| 2026-04-22 03:44 | 25.94039 | -100.64810 | 20665 ft | 377 kts | 306° |
| 2026-04-22 03:44 | 25.95682 | -100.67112 | 21231 ft | 382 kts | 304° |
| 2026-04-22 03:44 | 25.97314 | -100.69467 | 21779 ft | 388 kts | 304° |
| 2026-04-22 03:45 | 25.99013 | -100.71871 | 22038 ft | 402 kts | 306° |
| 2026-04-22 03:45 | 26.00788 | -100.74351 | 22104 ft | 419 kts | 304° |
| 2026-04-22 03:45 | 26.02608 | -100.76981 | 22104 ft | 438 kts | 304° |
| 2026-04-22 03:45 | 26.04502 | -100.79713 | 22101 ft | 455 kts | 304° |
| 2026-04-22 03:46 | 26.06467 | -100.82514 | 22103 ft | 462 kts | 305° |
| 2026-04-22 03:46 | 26.08477 | -100.85262 | 22079 ft | 459 kts | 309° |
| 2026-04-22 03:46 | 26.10645 | -100.87785 | 21923 ft | 435 kts | 310° |
| 2026-04-22 03:46 | 26.12681 | -100.90141 | 21162 ft | 427 kts | 310° |
| 2026-04-22 03:47 | 26.12809 | -100.90288 | 21119 ft | 426 kts | 310° |
| 2026-04-22 03:47 | 26.14855 | -100.92629 | 20475 ft | 412 kts | 310° |
| 2026-04-22 03:47 | 26.16825 | -100.94913 | 19795 ft | 407 kts | 309° |
| 2026-04-22 03:47 | 26.18721 | -100.97262 | 19175 ft | 412 kts | 305° |
| 2026-04-22 03:48 | 26.20534 | -100.99803 | 18996 ft | 426 kts | 306° |
| 2026-04-22 03:48 | 26.22357 | -101.02386 | 19917 ft | 421 kts | 304° |
| 2026-04-22 03:48 | 26.24091 | -101.04996 | 20720 ft | 416 kts | 303° |
| 2026-04-22 03:48 | 26.25692 | -101.07584 | 22016 ft | 393 kts | 291° |
| 2026-04-22 03:49 | 26.26220 | -101.10443 | 23614 ft | 366 kts | 273° |
| 2026-04-22 03:49 | 26.26164 | -101.13179 | 25047 ft | 341 kts | 265° |
| 2026-04-22 03:49 | 26.26143 | -101.15676 | 26366 ft | 317 kts | 291° |
| 2026-04-22 03:49 | 26.27343 | -101.17698 | 26516 ft | 307 kts | 303° |
| 2026-04-22 03:50 | 26.28844 | -101.19257 | 26547 ft | 286 kts | 307° |
| 2026-04-22 03:50 | 26.30383 | -101.20563 | 27116 ft | 271 kts | 311° |
| 2026-04-22 03:50 | 26.31698 | -101.22038 | 27637 ft | 263 kts | 306° |
| 2026-04-22 03:50 | 26.32605 | -101.23915 | 27092 ft | 289 kts | 283° |
| 2026-04-22 03:51 | 26.32865 | -101.26192 | 26679 ft | 307 kts | 283° |
| 2026-04-22 03:51 | 26.33040 | -101.28516 | 26252 ft | 296 kts | 285° |
| 2026-04-22 03:51 | 26.33371 | -101.30845 | 25953 ft | 316 kts | 288° |
| 2026-04-22 03:51 | 26.34170 | -101.33116 | 25614 ft | 312 kts | 295° |
| 2026-04-22 03:52 | 26.35260 | -101.35193 | 25244 ft | 309 kts | 298° |
| 2026-04-22 03:52 | 26.36435 | -101.37176 | 24881 ft | 302 kts | 298° |
| 2026-04-22 03:52 | 26.37447 | -101.39197 | 24551 ft | 296 kts | 294° |
| 2026-04-22 03:52 | 26.38362 | -101.41231 | 24202 ft | 291 kts | 293° |
| 2026-04-22 03:53 | 26.39259 | -101.43246 | 23872 ft | 288 kts | 293° |
| 2026-04-22 03:53 | 26.40164 | -101.45237 | 23516 ft | 285 kts | 294° |
| 2026-04-22 03:53 | 26.41075 | -101.47195 | 23120 ft | 283 kts | 294° |
| 2026-04-22 03:53 | 26.41972 | -101.49103 | 22726 ft | 280 kts | 294° |
| 2026-04-22 03:54 | 26.42877 | -101.51016 | 22343 ft | 277 kts | 294° |
| 2026-04-22 03:54 | 26.43768 | -101.52893 | 22130 ft | 268 kts | 294° |
| 2026-04-22 03:54 | 26.44613 | -101.54668 | 22110 ft | 250 kts | 294° |
| 2026-04-22 03:54 | 26.45398 | -101.56323 | 22112 ft | 232 kts | 294° |
| 2026-04-22 03:55 | 26.46150 | -101.57904 | 21987 ft | 241 kts | 294° |
| 2026-04-22 03:55 | 26.46940 | -101.59582 | 22445 ft | 243 kts | 294° |
| 2026-04-22 03:55 | 26.47711 | -101.61205 | 22242 ft | 241 kts | 294° |
| 2026-04-22 03:55 | 26.48526 | -101.62929 | 22454 ft | 253 kts | 294° |
| 2026-04-22 03:56 | 26.49358 | -101.64683 | 22674 ft | 269 kts | 294° |
| 2026-04-22 03:56 | 26.50299 | -101.66692 | 21913 ft | 318 kts | 294° |
| 2026-04-22 03:56 | 26.51351 | -101.68941 | 22026 ft | 336 kts | 295° |
| 2026-04-22 03:56 | 26.52457 | -101.71292 | 22093 ft | 355 kts | 295° |
| 2026-04-22 03:57 | 26.53638 | -101.73799 | 22111 ft | 375 kts | 295° |
| 2026-04-22 03:57 | 26.54888 | -101.76450 | 22108 ft | 396 kts | 295° |
| 2026-04-22 03:57 | 26.56205 | -101.79239 | 22106 ft | 416 kts | 295° |
| 2026-04-22 03:57 | 26.57586 | -101.82164 | 22107 ft | 435 kts | 295° |
| 2026-04-22 03:58 | 26.59026 | -101.85218 | 22103 ft | 452 kts | 295° |
| 2026-04-22 03:58 | 26.60515 | -101.88376 | 22104 ft | 468 kts | 295° |
| 2026-04-22 03:58 | 26.62048 | -101.91630 | 22170 ft | 476 kts | 295° |
| 2026-04-22 03:58 | 26.63546 | -101.94795 | 23584 ft | 450 kts | 295° |
| 2026-04-22 03:59 | 26.65011 | -101.97900 | 23705 ft | 449 kts | 295° |
| 2026-04-22 03:59 | 26.66437 | -102.00928 | 23517 ft | 431 kts | 295° |
| 2026-04-22 03:59 | 26.67825 | -102.03887 | 23130 ft | 438 kts | 295° |
| 2026-04-22 03:59 | 26.69268 | -102.06985 | 22732 ft | 459 kts | 295° |
| 2026-04-22 04:00 | 26.70736 | -102.10128 | 22345 ft | 453 kts | 295° |
| 2026-04-22 04:00 | 26.72172 | -102.13186 | 22089 ft | 434 kts | 295° |
| 2026-04-22 04:00 | 26.73535 | -102.16087 | 22088 ft | 410 kts | 295° |
| 2026-04-22 04:00 | 26.74825 | -102.18842 | 22081 ft | 387 kts | 295° |
| 2026-04-22 04:01 | 26.76040 | -102.21440 | 22088 ft | 366 kts | 295° |
| 2026-04-22 04:01 | 26.77189 | -102.23901 | 22087 ft | 347 kts | 294° |
| 2026-04-22 04:01 | 26.78279 | -102.26238 | 22088 ft | 333 kts | 294° |
| 2026-04-22 04:01 | 26.79367 | -102.28590 | 22087 ft | 353 kts | 294° |
| 2026-04-22 04:02 | 26.80522 | -102.31092 | 22088 ft | 372 kts | 294° |
| 2026-04-22 04:02 | 26.81746 | -102.33732 | 22085 ft | 391 kts | 295° |
| 2026-04-22 04:02 | 26.83029 | -102.36492 | 22085 ft | 409 kts | 295° |
| 2026-04-22 04:02 | 26.84378 | -102.39385 | 22084 ft | 427 kts | 295° |
| 2026-04-22 04:03 | 26.85781 | -102.42396 | 22089 ft | 443 kts | 295° |
| 2026-04-22 04:03 | 26.87194 | -102.45425 | 22077 ft | 428 kts | 295° |
| 2026-04-22 04:03 | 26.88537 | -102.48300 | 22083 ft | 410 kts | 295° |
| 2026-04-22 04:03 | 26.89849 | -102.51143 | 22069 ft | 417 kts | 294° |
| 2026-04-22 04:04 | 26.91183 | -102.54061 | 22074 ft | 423 kts | 294° |
| 2026-04-22 04:04 | 26.92539 | -102.57018 | 22070 ft | 429 kts | 295° |
| 2026-04-22 04:04 | 26.93912 | -102.59987 | 22069 ft | 425 kts | 295° |
| 2026-04-22 04:04 | 26.95276 | -102.62901 | 22070 ft | 419 kts | 295° |
| 2026-04-22 04:05 | 26.96600 | -102.65733 | 22062 ft | 413 kts | 295° |
| 2026-04-22 04:05 | 26.97920 | -102.68569 | 22061 ft | 407 kts | 295° |
| 2026-04-22 04:05 | 26.99217 | -102.71368 | 22054 ft | 402 kts | 295° |
| 2026-04-22 04:05 | 27.00496 | -102.74137 | 22050 ft | 397 kts | 295° |
| 2026-04-22 04:06 | 27.01756 | -102.76868 | 22043 ft | 393 kts | 295° |
| 2026-04-22 04:06 | 27.03006 | -102.79582 | 22039 ft | 389 kts | 295° |
| 2026-04-22 04:06 | 27.04249 | -102.82280 | 22030 ft | 393 kts | 295° |
| 2026-04-22 04:06 | 27.05526 | -102.85055 | 22026 ft | 409 kts | 295° |
| 2026-04-22 04:07 | 27.06855 | -102.87950 | 22023 ft | 426 kts | 295° |
| 2026-04-22 04:07 | 27.08216 | -102.90912 | 22018 ft | 422 kts | 295° |
| 2026-04-22 04:07 | 27.09550 | -102.93807 | 22017 ft | 420 kts | 295° |
| 2026-04-22 04:07 | 27.10898 | -102.96742 | 22009 ft | 422 kts | 295° |
| 2026-04-22 04:08 | 27.12220 | -102.99617 | 22005 ft | 405 kts | 295° |
| 2026-04-22 04:08 | 27.13484 | -103.02365 | 22003 ft | 391 kts | 295° |
| 2026-04-22 04:08 | 27.14751 | -103.05132 | 22005 ft | 405 kts | 295° |
| 2026-04-22 04:08 | 27.16057 | -103.07994 | 21999 ft | 419 kts | 295° |
| 2026-04-22 04:09 | 27.17412 | -103.10960 | 21995 ft | 432 kts | 295° |
| 2026-04-22 04:09 | 27.18797 | -103.13991 | 21989 ft | 434 kts | 295° |
| 2026-04-22 04:09 | 27.20147 | -103.16935 | 21990 ft | 420 kts | 295° |
| 2026-04-22 04:09 | 27.21476 | -103.19838 | 21993 ft | 413 kts | 295° |
| 2026-04-22 04:10 | 27.22806 | -103.22753 | 21992 ft | 423 kts | 295° |
| 2026-04-22 04:10 | 27.24138 | -103.25677 | 21993 ft | 417 kts | 295° |
| 2026-04-22 04:10 | 27.25454 | -103.28563 | 21992 ft | 412 kts | 295° |
| 2026-04-22 04:10 | 27.26754 | -103.31415 | 21993 ft | 407 kts | 295° |
| 2026-04-22 04:11 | 27.28024 | -103.34207 | 21971 ft | 411 kts | 295° |
| 2026-04-22 04:11 | 27.29354 | -103.37142 | 22293 ft | 420 kts | 295° |
| 2026-04-22 04:11 | 27.30664 | -103.40024 | 23052 ft | 418 kts | 295° |
| 2026-04-22 04:11 | 27.31993 | -103.42950 | 23609 ft | 421 kts | 295° |
| 2026-04-22 04:12 | 27.33328 | -103.45890 | 24091 ft | 424 kts | 295° |
| 2026-04-22 04:12 | 27.34671 | -103.48851 | 24584 ft | 425 kts | 295° |
| 2026-04-22 04:12 | 27.36018 | -103.51822 | 25057 ft | 428 kts | 295° |
| 2026-04-22 04:12 | 27.37370 | -103.54807 | 25527 ft | 428 kts | 295° |
| 2026-04-22 04:13 | 27.38728 | -103.57807 | 25909 ft | 431 kts | 295° |
| 2026-04-22 04:13 | 27.40093 | -103.60824 | 26288 ft | 433 kts | 295° |
| 2026-04-22 04:13 | 27.41458 | -103.63845 | 26666 ft | 434 kts | 295° |
| 2026-04-22 04:13 | 27.42832 | -103.66887 | 27036 ft | 436 kts | 295° |
| 2026-04-22 04:14 | 27.44194 | -103.69906 | 27391 ft | 438 kts | 295° |
| 2026-04-22 04:14 | 27.45584 | -103.72988 | 27549 ft | 445 kts | 295° |
| 2026-04-22 04:14 | 27.46993 | -103.76115 | 27715 ft | 448 kts | 295° |
| 2026-04-22 04:14 | 27.48400 | -103.79239 | 28136 ft | 445 kts | 295° |
| 2026-04-22 04:15 | 27.49793 | -103.82331 | 28766 ft | 438 kts | 295° |
| 2026-04-22 04:15 | 27.51160 | -103.85371 | 29420 ft | 433 kts | 295° |
| 2026-04-22 04:15 | 27.52511 | -103.88378 | 30102 ft | 428 kts | 295° |
| 2026-04-22 04:15 | 27.53847 | -103.91353 | 30686 ft | 423 kts | 295° |
| 2026-04-22 04:16 | 27.55165 | -103.94292 | 31295 ft | 418 kts | 295° |
| 2026-04-22 04:16 | 27.57793 | -104.00160 | 31907 ft | 424 kts | 295° |
| 2026-04-22 04:17 | 27.60488 | -104.06190 | 31943 ft | 436 kts | 295° |
| 2026-04-22 04:17 | 27.63242 | -104.12354 | 31937 ft | 442 kts | 295° |
| 2026-04-22 04:18 | 27.66017 | -104.18568 | 31942 ft | 445 kts | 295° |
| 2026-04-22 04:18 | 27.68788 | -104.24781 | 31943 ft | 446 kts | 295° |
| 2026-04-22 04:19 | 27.71574 | -104.31037 | 31940 ft | 446 kts | 295° |
| 2026-04-22 04:19 | 27.74389 | -104.37287 | 31939 ft | 446 kts | 295° |
| 2026-04-22 04:20 | 27.77217 | -104.43527 | 31959 ft | 446 kts | 295° |
| 2026-04-22 04:20 | 27.80037 | -104.49765 | 32015 ft | 445 kts | 295° |
| 2026-04-22 04:21 | 27.82371 | -104.54936 | 32057 ft | 444 kts | 295° |
| 2026-04-22 04:21 | 27.85169 | -104.61150 | 32109 ft | 444 kts | 295° |
| 2026-04-22 04:22 | 27.87964 | -104.67367 | 32164 ft | 444 kts | 295° |
| 2026-04-22 04:22 | 27.90759 | -104.73595 | 32223 ft | 444 kts | 295° |
| 2026-04-22 04:23 | 27.93546 | -104.79815 | 32273 ft | 444 kts | 295° |
| 2026-04-22 04:23 | 27.96335 | -104.86047 | 32327 ft | 444 kts | 295° |
| 2026-04-22 04:24 | 27.99116 | -104.92275 | 32379 ft | 444 kts | 295° |
| 2026-04-22 04:24 | 28.01886 | -104.98496 | 32460 ft | 442 kts | 296° |
| 2026-04-22 04:25 | 28.04650 | -105.04701 | 32492 ft | 441 kts | 296° |
| 2026-04-22 04:25 | 28.07412 | -105.10911 | 32536 ft | 441 kts | 296° |
| 2026-04-22 04:26 | 28.10150 | -105.17082 | 33064 ft | 431 kts | 295° |
| 2026-04-22 04:26 | 28.12851 | -105.23181 | 33165 ft | 435 kts | 296° |
| 2026-04-22 04:27 | 28.15573 | -105.29323 | 33231 ft | 438 kts | 296° |
| 2026-04-22 04:27 | 28.18310 | -105.35511 | 33288 ft | 439 kts | 296° |
| 2026-04-22 04:28 | 28.21030 | -105.41673 | 33352 ft | 440 kts | 296° |
| 2026-04-22 04:28 | 28.23785 | -105.47925 | 33410 ft | 441 kts | 295° |
| 2026-04-22 04:29 | 28.26505 | -105.54109 | 33525 ft | 440 kts | 295° |
| 2026-04-22 04:29 | 28.29238 | -105.60331 | 33610 ft | 440 kts | 295° |
| 2026-04-22 04:30 | 28.31968 | -105.66554 | 33704 ft | 440 kts | 295° |
| 2026-04-22 04:30 | 28.34699 | -105.72791 | 33797 ft | 441 kts | 295° |
| 2026-04-22 04:31 | 28.37425 | -105.79024 | 33906 ft | 441 kts | 295° |
| 2026-04-22 04:31 | 28.40130 | -105.85218 | 34000 ft | 440 kts | 295° |
| 2026-04-22 04:32 | 28.42848 | -105.91453 | 34107 ft | 440 kts | 295° |
| 2026-04-22 04:32 | 28.45562 | -105.97690 | 34211 ft | 440 kts | 295° |
| 2026-04-22 04:33 | 28.48273 | -106.03931 | 34286 ft | 440 kts | 295° |
| 2026-04-22 04:33 | 28.50981 | -106.10178 | 34316 ft | 440 kts | 295° |
| 2026-04-22 04:34 | 28.53692 | -106.16428 | 34416 ft | 440 kts | 295° |
| 2026-04-22 04:34 | 28.56398 | -106.22680 | 34529 ft | 440 kts | 295° |
| 2026-04-22 04:35 | 28.59096 | -106.28929 | 34634 ft | 440 kts | 295° |
| 2026-04-22 04:35 | 28.61788 | -106.35172 | 34723 ft | 440 kts | 295° |
| 2026-04-22 04:36 | 28.64464 | -106.41391 | 34803 ft | 440 kts | 295° |
| 2026-04-22 04:36 | 28.67157 | -106.47660 | 34873 ft | 440 kts | 295° |
| 2026-04-22 04:37 | 28.69843 | -106.53917 | 34970 ft | 440 kts | 295° |
| 2026-04-22 04:37 | 28.72529 | -106.60182 | 35030 ft | 440 kts | 295° |
| 2026-04-22 04:38 | 28.75213 | -106.66467 | 34984 ft | 440 kts | 295° |
| 2026-04-22 04:38 | 28.77676 | -106.72900 | 34748 ft | 446 kts | 290° |
| 2026-04-22 04:38 | 28.78714 | -106.76240 | 34581 ft | 447 kts | 288° |
| 2026-04-22 04:39 | 28.79607 | -106.79606 | 34359 ft | 448 kts | 285° |
| 2026-04-22 04:39 | 28.80371 | -106.83062 | 34107 ft | 450 kts | 283° |
| 2026-04-22 04:39 | 28.81035 | -106.86558 | 33904 ft | 450 kts | 285° |
| 2026-04-22 04:39 | 28.82155 | -106.89927 | 33942 ft | 449 kts | 296° |
| 2026-04-22 04:40 | 28.83142 | -106.91835 | 33939 ft | 450 kts | 303° |
| 2026-04-22 04:40 | 28.85891 | -106.95581 | 34280 ft | 422 kts | 307° |
| 2026-04-22 04:41 | 28.89144 | -107.00836 | 34548 ft | 411 kts | 301° |
| 2026-04-22 04:41 | 28.90676 | -107.03619 | 34654 ft | 416 kts | 299° |
| 2026-04-22 04:41 | 28.92131 | -107.06511 | 34716 ft | 422 kts | 297° |
| 2026-04-22 04:42 | 28.94819 | -107.12523 | 34814 ft | 432 kts | 295° |
| 2026-04-22 04:42 | 28.97455 | -107.18772 | 34877 ft | 437 kts | 294° |
| 2026-04-22 04:43 | 29.00087 | -107.25042 | 34934 ft | 441 kts | 294° |
| 2026-04-22 04:43 | 29.02752 | -107.31378 | 34996 ft | 443 kts | 294° |
| 2026-04-22 04:44 | 29.05416 | -107.37725 | 35030 ft | 444 kts | 294° |
| 2026-04-22 04:44 | 29.08091 | -107.44108 | 35093 ft | 444 kts | 294° |
| 2026-04-22 04:45 | 29.10740 | -107.50438 | 35140 ft | 443 kts | 294° |
| 2026-04-22 04:45 | 29.13426 | -107.56867 | 35217 ft | 443 kts | 294° |
| 2026-04-22 04:46 | 29.16072 | -107.63210 | 35282 ft | 443 kts | 294° |
| 2026-04-22 04:46 | 29.18723 | -107.69577 | 35343 ft | 443 kts | 294° |
| 2026-04-22 04:47 | 29.21374 | -107.75954 | 35408 ft | 442 kts | 293° |
| 2026-04-22 04:47 | 29.24004 | -107.82309 | 35471 ft | 442 kts | 294° |
| 2026-04-22 04:48 | 29.26641 | -107.88657 | 35528 ft | 442 kts | 294° |
| 2026-04-22 04:48 | 29.29282 | -107.95034 | 35573 ft | 442 kts | 293° |
| 2026-04-22 04:49 | 29.31904 | -108.01380 | 35630 ft | 442 kts | 293° |
| 2026-04-22 04:49 | 29.34533 | -108.07755 | 35675 ft | 442 kts | 293° |
| 2026-04-22 04:50 | 29.37165 | -108.14151 | 35712 ft | 442 kts | 293° |
| 2026-04-22 04:50 | 29.39790 | -108.20537 | 35750 ft | 442 kts | 293° |
| 2026-04-22 04:51 | 29.42397 | -108.26896 | 35755 ft | 443 kts | 293° |
| 2026-04-22 04:51 | 29.45021 | -108.33299 | 35825 ft | 442 kts | 293° |
| 2026-04-22 04:52 | 29.47634 | -108.39686 | 36008 ft | 440 kts | 293° |
| 2026-04-22 04:52 | 29.50223 | -108.46015 | 36074 ft | 439 kts | 293° |
| 2026-04-22 04:53 | 29.52820 | -108.52374 | 36062 ft | 441 kts | 293° |
| 2026-04-22 04:53 | 29.55439 | -108.58775 | 36060 ft | 442 kts | 293° |
| 2026-04-22 04:54 | 29.58069 | -108.65196 | 36048 ft | 443 kts | 293° |
| 2026-04-22 04:54 | 29.60679 | -108.71580 | 36037 ft | 444 kts | 293° |
| 2026-04-22 04:55 | 29.63310 | -108.78033 | 36032 ft | 444 kts | 293° |
| 2026-04-22 04:55 | 29.65920 | -108.84440 | 36016 ft | 444 kts | 293° |
| 2026-04-22 04:56 | 29.68538 | -108.90881 | 36017 ft | 443 kts | 293° |
| 2026-04-22 04:56 | 29.71127 | -108.97253 | 36003 ft | 443 kts | 293° |
| 2026-04-22 04:57 | 29.73730 | -109.03676 | 35996 ft | 442 kts | 293° |
| 2026-04-22 04:57 | 29.76322 | -109.10088 | 35992 ft | 442 kts | 293° |
| 2026-04-22 04:58 | 29.78915 | -109.16509 | 35987 ft | 441 kts | 292° |
| 2026-04-22 04:58 | 29.81502 | -109.22923 | 35979 ft | 441 kts | 292° |
| 2026-04-22 04:59 | 29.84073 | -109.29308 | 35979 ft | 441 kts | 292° |
| 2026-04-22 04:59 | 29.86654 | -109.35733 | 35976 ft | 441 kts | 292° |
| 2026-04-22 05:00 | 29.89224 | -109.42142 | 35975 ft | 440 kts | 292° |
| 2026-04-22 05:00 | 29.91786 | -109.48541 | 35973 ft | 438 kts | 292° |
| 2026-04-22 05:01 | 29.94324 | -109.54886 | 35970 ft | 438 kts | 292° |
| 2026-04-22 05:01 | 29.96879 | -109.61291 | 35973 ft | 439 kts | 292° |
| 2026-04-22 05:02 | 29.99005 | -109.66623 | 35977 ft | 439 kts | 292° |
| 2026-04-22 05:02 | 30.01556 | -109.73034 | 35980 ft | 439 kts | 292° |
| 2026-04-22 05:03 | 30.04103 | -109.79446 | 35983 ft | 439 kts | 292° |
| 2026-04-22 05:03 | 30.06627 | -109.85814 | 35983 ft | 439 kts | 292° |
| 2026-04-22 05:04 | 30.09164 | -109.92223 | 35985 ft | 439 kts | 292° |
| 2026-04-22 05:04 | 30.11708 | -109.98660 | 35988 ft | 439 kts | 292° |
| 2026-04-22 05:05 | 30.14240 | -110.05082 | 35995 ft | 439 kts | 292° |
| 2026-04-22 05:05 | 30.16767 | -110.11498 | 36002 ft | 439 kts | 292° |
| 2026-04-22 05:06 | 30.19280 | -110.17891 | 35998 ft | 439 kts | 292° |
| 2026-04-22 05:06 | 30.21810 | -110.24339 | 35997 ft | 439 kts | 292° |
| 2026-04-22 05:07 | 30.24314 | -110.30733 | 35990 ft | 439 kts | 292° |
| 2026-04-22 05:07 | 30.26828 | -110.37161 | 35984 ft | 439 kts | 291° |
| 2026-04-22 05:08 | 30.29342 | -110.43601 | 35985 ft | 439 kts | 291° |
| 2026-04-22 05:08 | 30.31851 | -110.50041 | 35977 ft | 438 kts | 291° |
| 2026-04-22 05:09 | 30.34335 | -110.56426 | 35973 ft | 438 kts | 291° |
| 2026-04-22 05:09 | 30.36838 | -110.62871 | 35974 ft | 438 kts | 291° |
| 2026-04-22 05:10 | 30.39318 | -110.69268 | 35967 ft | 438 kts | 291° |
| 2026-04-22 05:10 | 30.41807 | -110.75703 | 35964 ft | 437 kts | 291° |
| 2026-04-22 05:11 | 30.44295 | -110.82147 | 35960 ft | 437 kts | 291° |
| 2026-04-22 05:11 | 30.46775 | -110.88582 | 35955 ft | 437 kts | 291° |
| 2026-04-22 05:12 | 30.49252 | -110.95018 | 35952 ft | 437 kts | 291° |
| 2026-04-22 05:12 | 30.51729 | -111.01461 | 35950 ft | 437 kts | 291° |
| 2026-04-22 05:13 | 30.54181 | -111.07865 | 35945 ft | 437 kts | 291° |
| 2026-04-22 05:13 | 30.56649 | -111.14310 | 35947 ft | 437 kts | 291° |
| 2026-04-22 05:14 | 30.59112 | -111.20753 | 35938 ft | 437 kts | 291° |
| 2026-04-22 05:14 | 30.61573 | -111.27204 | 35940 ft | 437 kts | 291° |
| 2026-04-22 05:15 | 30.64030 | -111.33655 | 35938 ft | 437 kts | 291° |
| 2026-04-22 05:15 | 30.66484 | -111.40110 | 35936 ft | 437 kts | 290° |
| 2026-04-22 05:16 | 30.68934 | -111.46569 | 35934 ft | 437 kts | 290° |
| 2026-04-22 05:16 | 30.71378 | -111.53026 | 35921 ft | 437 kts | 290° |
| 2026-04-22 05:17 | 30.73822 | -111.59490 | 35920 ft | 437 kts | 290° |
| 2026-04-22 05:17 | 30.76263 | -111.65958 | 35937 ft | 437 kts | 290° |
| 2026-04-22 05:18 | 30.79917 | -111.75664 | 35928 ft | 437 kts | 290° |
| 2026-04-22 05:18 | 30.82359 | -111.82159 | 35937 ft | 440 kts | 289° |
| 2026-04-22 05:19 | 30.84832 | -111.88764 | 35930 ft | 447 kts | 289° |
| 2026-04-22 05:19 | 30.87310 | -111.95388 | 35929 ft | 450 kts | 289° |
| 2026-04-22 05:20 | 30.89817 | -112.02101 | 35929 ft | 452 kts | 289° |
| 2026-04-22 05:20 | 30.92308 | -112.08780 | 35932 ft | 453 kts | 289° |
| 2026-04-22 05:21 | 30.94809 | -112.15498 | 35934 ft | 454 kts | 289° |
| 2026-04-22 05:21 | 30.97321 | -112.22264 | 35935 ft | 455 kts | 289° |
| 2026-04-22 05:22 | 30.99820 | -112.29007 | 35935 ft | 455 kts | 289° |
| 2026-04-22 05:22 | 31.02297 | -112.35702 | 35938 ft | 455 kts | 289° |
| 2026-04-22 05:23 | 31.04669 | -112.42125 | 35939 ft | 455 kts | 289° |
| 2026-04-22 05:23 | 31.07170 | -112.48911 | 35939 ft | 455 kts | 289° |
| 2026-04-22 05:24 | 31.09667 | -112.55700 | 35939 ft | 455 kts | 289° |
| 2026-04-22 05:24 | 31.12161 | -112.62493 | 35938 ft | 456 kts | 289° |
| 2026-04-22 05:25 | 31.14659 | -112.69311 | 35941 ft | 456 kts | 289° |
| 2026-04-22 05:25 | 31.17152 | -112.76127 | 35941 ft | 456 kts | 289° |
| 2026-04-22 05:26 | 31.19622 | -112.82896 | 35939 ft | 456 kts | 289° |
| 2026-04-22 05:26 | 31.22111 | -112.89730 | 35942 ft | 456 kts | 289° |
| 2026-04-22 05:27 | 31.24597 | -112.96568 | 35941 ft | 457 kts | 289° |
| 2026-04-22 05:27 | 31.27022 | -113.03251 | 35937 ft | 457 kts | 289° |
| 2026-04-22 05:28 | 31.29502 | -113.10099 | 35935 ft | 457 kts | 289° |
| 2026-04-22 05:28 | 31.31970 | -113.16929 | 35937 ft | 457 kts | 289° |
| 2026-04-22 05:29 | 31.34449 | -113.23803 | 35935 ft | 457 kts | 289° |
| 2026-04-22 05:29 | 31.36878 | -113.30542 | 35935 ft | 457 kts | 289° |
| 2026-04-22 05:30 | 31.39231 | -113.37403 | 35931 ft | 456 kts | 288° |
| 2026-04-22 05:30 | 31.41521 | -113.44243 | 35946 ft | 454 kts | 288° |
| 2026-04-22 05:31 | 31.43839 | -113.51128 | 35931 ft | 455 kts | 288° |
| 2026-04-22 05:31 | 31.46168 | -113.58034 | 35937 ft | 456 kts | 288° |
| 2026-04-22 05:32 | 31.48493 | -113.64939 | 35938 ft | 456 kts | 288° |
| 2026-04-22 05:32 | 31.50816 | -113.71856 | 35941 ft | 456 kts | 288° |
| 2026-04-22 05:33 | 31.53121 | -113.78731 | 35943 ft | 456 kts | 288° |
| 2026-04-22 05:33 | 31.55450 | -113.85694 | 35937 ft | 456 kts | 288° |
| 2026-04-22 05:34 | 31.57747 | -113.92577 | 35944 ft | 456 kts | 288° |
| 2026-04-22 05:34 | 31.60060 | -113.99521 | 35943 ft | 456 kts | 288° |
| 2026-04-22 05:35 | 31.62357 | -114.06432 | 35941 ft | 455 kts | 288° |
| 2026-04-22 05:35 | 31.64648 | -114.13338 | 35936 ft | 455 kts | 288° |
| 2026-04-22 05:36 | 31.66947 | -114.20287 | 35941 ft | 455 kts | 288° |
| 2026-04-22 05:36 | 31.69239 | -114.27226 | 35936 ft | 455 kts | 288° |
| 2026-04-22 05:37 | 31.71501 | -114.34088 | 35939 ft | 454 kts | 288° |
| 2026-04-22 05:37 | 31.73779 | -114.41015 | 35939 ft | 454 kts | 288° |
| 2026-04-22 05:38 | 31.76051 | -114.47940 | 35937 ft | 453 kts | 288° |
| 2026-04-22 05:38 | 31.78320 | -114.54866 | 35941 ft | 453 kts | 288° |
| 2026-04-22 05:39 | 31.80558 | -114.61718 | 35940 ft | 453 kts | 288° |
| 2026-04-22 05:39 | 31.82811 | -114.68625 | 35939 ft | 452 kts | 288° |
| 2026-04-22 05:40 | 31.85057 | -114.75527 | 35942 ft | 451 kts | 288° |
| 2026-04-22 05:40 | 31.87298 | -114.82426 | 35938 ft | 451 kts | 288° |
| 2026-04-22 05:41 | 31.89532 | -114.89324 | 35940 ft | 450 kts | 288° |
| 2026-04-22 05:41 | 31.91759 | -114.96209 | 35941 ft | 449 kts | 288° |
| 2026-04-22 05:42 | 31.93967 | -115.03049 | 35931 ft | 436 kts | 288° |
| 2026-04-22 05:42 | 31.96096 | -115.09653 | 35941 ft | 432 kts | 287° |
| 2026-04-22 05:43 | 31.98214 | -115.16253 | 35947 ft | 431 kts | 287° |
| 2026-04-22 05:43 | 31.99976 | -115.21746 | 35944 ft | 430 kts | 287° |
| 2026-04-22 05:44 | 32.02434 | -115.29425 | 35944 ft | 429 kts | 287° |
| 2026-04-22 05:44 | 32.04184 | -115.34905 | 35947 ft | 429 kts | 287° |
| 2026-04-22 05:45 | 32.06281 | -115.41482 | 35957 ft | 427 kts | 287° |
| 2026-04-22 05:45 | 32.08364 | -115.48027 | 35975 ft | 425 kts | 287° |
| 2026-04-22 05:46 | 32.10435 | -115.54550 | 35992 ft | 424 kts | 287° |
| 2026-04-22 05:46 | 32.12494 | -115.61047 | 36005 ft | 422 kts | 286° |
| 2026-04-22 05:47 | 32.14541 | -115.67523 | 36015 ft | 420 kts | 286° |
| 2026-04-22 05:47 | 32.16573 | -115.73968 | 36031 ft | 419 kts | 286° |
| 2026-04-22 05:48 | 32.18597 | -115.80418 | 36041 ft | 418 kts | 286° |
| 2026-04-22 05:48 | 32.20439 | -115.86865 | 36055 ft | 417 kts | 284° |
| 2026-04-22 05:49 | 32.22357 | -115.93341 | 36066 ft | 418 kts | 286° |
| 2026-04-22 05:49 | 32.24376 | -115.99790 | 36081 ft | 418 kts | 286° |
| 2026-04-22 05:50 | 32.26407 | -116.06222 | 36090 ft | 417 kts | 286° |
| 2026-04-22 05:50 | 32.28428 | -116.12640 | 36100 ft | 417 kts | 286° |
| 2026-04-22 05:51 | 32.30449 | -116.19078 | 36105 ft | 418 kts | 286° |
| 2026-04-22 05:51 | 32.32468 | -116.25526 | 36109 ft | 418 kts | 287° |
| 2026-04-22 05:52 | 32.34488 | -116.31988 | 36112 ft | 419 kts | 287° |
| 2026-04-22 05:52 | 32.36508 | -116.38463 | 36110 ft | 420 kts | 287° |
| 2026-04-22 05:53 | 32.38528 | -116.44951 | 36104 ft | 421 kts | 287° |
| 2026-04-22 05:53 | 32.40551 | -116.51460 | 36113 ft | 421 kts | 287° |
| 2026-04-22 05:54 | 32.42562 | -116.57944 | 36115 ft | 421 kts | 287° |
| 2026-04-22 05:54 | 32.44583 | -116.64477 | 36121 ft | 420 kts | 287° |
| 2026-04-22 05:55 | 32.46586 | -116.70966 | 36126 ft | 420 kts | 287° |
| 2026-04-22 05:55 | 32.48580 | -116.77436 | 36133 ft | 419 kts | 287° |
| 2026-04-22 05:56 | 32.50547 | -116.83893 | 36128 ft | 419 kts | 287° |
| 2026-04-22 05:56 | 32.53417 | -116.89904 | 36139 ft | 427 kts | 302° |
| 2026-04-22 05:57 | 32.55231 | -116.92668 | 35650 ft | 422 kts | 302° |
| 2026-04-22 05:57 | 32.57135 | -116.95341 | 34275 ft | 433 kts | 308° |
| 2026-04-22 05:57 | 32.59519 | -116.97638 | 32733 ft | 450 kts | 324° |
| 2026-04-22 05:57 | 32.62533 | -116.98821 | 30649 ft | 489 kts | 354° |
| 2026-04-22 05:58 | 32.65979 | -116.97735 | 28714 ft | 522 kts | 15° |
| 2026-04-22 05:58 | 32.69253 | -116.95930 | 27448 ft | 520 kts | 21° |
| 2026-04-22 05:58 | 32.72397 | -116.93816 | 26407 ft | 517 kts | 26° |
| 2026-04-22 05:58 | 32.75177 | -116.91194 | 25708 ft | 518 kts | 41° |
| 2026-04-22 05:59 | 32.77287 | -116.87694 | 24269 ft | 535 kts | 61° |
| 2026-04-22 05:59 | 32.78677 | -116.83625 | 23868 ft | 522 kts | 70° |
| 2026-04-22 05:59 | 32.79522 | -116.79481 | 23163 ft | 514 kts | 80° |
| 2026-04-22 05:59 | 32.79706 | -116.75277 | 22253 ft | 505 kts | 99° |
| 2026-04-22 06:00 | 32.78903 | -116.71265 | 21480 ft | 495 kts | 110° |
| 2026-04-22 06:00 | 32.78195 | -116.68939 | 21036 ft | 488 kts | 113° |
| 2026-04-22 06:01 | 32.78078 | -116.68574 | 20968 ft | 487 kts | 113° |
| 2026-04-22 06:01 | 32.76838 | -116.65153 | 20515 ft | 441 kts | 121° |
| 2026-04-22 06:02 | 32.75449 | -116.62008 | 20105 ft | 418 kts | 121° |
| 2026-04-22 06:02 | 32.74084 | -116.59105 | 20316 ft | 385 kts | 127° |
| 2026-04-22 06:02 | 32.72540 | -116.56694 | 20653 ft | 349 kts | 137° |
| 2026-04-22 06:02 | 32.70798 | -116.54767 | 20338 ft | 334 kts | 149° |
| 2026-04-22 06:03 | 32.68846 | -116.53301 | 19713 ft | 332 kts | 160° |
| 2026-04-22 06:03 | 32.66707 | -116.52304 | 19098 ft | 328 kts | 171° |
| 2026-04-22 06:03 | 32.64476 | -116.51821 | 18526 ft | 323 kts | 182° |
| 2026-04-22 06:03 | 32.62246 | -116.51860 | 17905 ft | 318 kts | 193° |
| 2026-04-22 06:04 | 32.60112 | -116.52403 | 17220 ft | 313 kts | 204° |
| 2026-04-22 06:04 | 32.58131 | -116.53437 | 16540 ft | 309 kts | 214° |
| 2026-04-22 06:04 | 32.56439 | -116.54914 | 15786 ft | 301 kts | 235° |
| 2026-04-22 06:04 | 32.55538 | -116.57214 | 14153 ft | 327 kts | 259° |
| 2026-04-22 06:05 | 32.55625 | -116.59972 | 13138 ft | 337 kts | 277° |
| 2026-04-22 06:05 | 32.56130 | -116.62589 | 13108 ft | 314 kts | 285° |
| 2026-04-22 06:05 | 32.56829 | -116.64933 | 13111 ft | 290 kts | 286° |
| 2026-04-22 06:05 | 32.57501 | -116.67096 | 13111 ft | 268 kts | 287° |
| 2026-04-22 06:06 | 32.58156 | -116.69061 | 13115 ft | 245 kts | 288° |
| 2026-04-22 06:06 | 32.58789 | -116.70843 | 13105 ft | 223 kts | 288° |
| 2026-04-22 06:06 | 32.59488 | -116.72550 | 12191 ft | 240 kts | 293° |
| 2026-04-22 06:06 | 32.60289 | -116.74356 | 11253 ft | 256 kts | 291° |
| 2026-04-22 06:07 | 32.61086 | -116.76326 | 10265 ft | 272 kts | 291° |
| 2026-04-22 06:07 | 32.61897 | -116.78445 | 8382 ft | 299 kts | 290° |
| 2026-04-22 06:07 | 32.62741 | -116.80808 | 6027 ft | 328 kts | 290° |
| 2026-04-22 06:07 | 32.63599 | -116.83361 | 5188 ft | 319 kts | 290° |
| 2026-04-22 06:08 | 32.64372 | -116.85675 | 5435 ft | 279 kts | 290° |
| 2026-04-22 06:08 | 32.65053 | -116.87646 | 5799 ft | 237 kts | 290° |
| 2026-04-22 06:08 | 32.65653 | -116.89330 | 5884 ft | 214 kts | 290° |
| 2026-04-22 06:08 | 32.66237 | -116.90978 | 5310 ft | 222 kts | 291° |
| 2026-04-22 06:09 | 32.66855 | -116.92716 | 4597 ft | 234 kts | 292° |
| 2026-04-22 06:09 | 32.67410 | -116.94477 | 4268 ft | 227 kts | 285° |
| 2026-04-22 06:09 | 32.67825 | -116.96255 | 4127 ft | 214 kts | 285° |
| 2026-04-22 06:09 | 32.68218 | -116.97905 | 4106 ft | 200 kts | 285° |
| 2026-04-22 06:10 | 32.68606 | -116.99535 | 3593 ft | 211 kts | 285° |
| 2026-04-22 06:10 | 32.68996 | -117.01132 | 3576 ft | 196 kts | 286° |
| 2026-04-22 06:10 | 32.69372 | -117.02660 | 3376 ft | 188 kts | 286° |
| 2026-04-22 06:10 | 32.69734 | -117.04129 | 3127 ft | 180 kts | 287° |
| 2026-04-22 06:11 | 32.70080 | -117.05554 | 2703 ft | 183 kts | 287° |
| 2026-04-22 06:11 | 32.70428 | -117.06997 | 2426 ft | 175 kts | 287° |
| 2026-04-22 06:11 | 32.70750 | -117.08378 | 2063 ft | 175 kts | 286° |
| 2026-04-22 06:11 | 32.71084 | -117.09789 | 1529 ft | 181 kts | 287° |
| 2026-04-22 06:12 | 32.71435 | -117.11190 | 1296 ft | 172 kts | 287° |
| 2026-04-22 06:12 | 32.71777 | -117.12514 | 1042 ft | 166 kts | 288° |
| 2026-04-22 06:12 | 32.72118 | -117.13794 | 821 ft | 159 kts | 287° |
| 2026-04-22 06:12 | 32.72414 | -117.15033 | 572 ft | 150 kts | 287° |
| 2026-04-22 06:13 | 32.72666 | -117.16061 | 416 ft | 137 kts | 287° |
| 2026-04-22 06:13 | 32.72908 | -117.17094 | 173 ft | 130 kts | 287° |
| 2026-04-22 06:13 | 32.73152 | -117.18154 | 94 ft | 130 kts | 290° |
| 2026-04-22 06:13 | 32.73382 | -117.19081 | 30 ft | 77 kts | 286° |
| 2026-04-22 06:14 | 32.73443 | -117.19405 | 32 ft | 34 kts | 265° |
| 2026-04-22 06:14 | 32.73430 | -117.19464 | 33 ft | 6 kts | 254° |
| 2026-04-22 06:14 | 32.73430 | -117.19467 | 33 ft | 2 kts | 254° |
| 2026-04-22 06:14 | 32.73425 | -117.19485 | 33 ft | 4 kts | 254° |
| 2026-04-22 06:15 | 32.73421 | -117.19501 | 33 ft | 1 kts | 254° |
| 2026-04-22 06:15 | 32.73417 | -117.19521 | 33 ft | 4 kts | 254° |